createdAt,value
2017-12-23T00:00:08.928Z,99.99
2017-12-23T00:01:08.802Z,99.99
2017-12-23T00:02:15.492Z,99.99
2017-12-23T00:03:08.801Z,99.99
2017-12-23T00:04:08.954Z,99.99
2017-12-23T00:05:08.810Z,99.99
2017-12-23T00:06:15.514Z,99.99
2017-12-23T00:07:08.818Z,99.99
2017-12-23T00:08:15.527Z,99.99
2017-12-23T00:09:08.815Z,99.99
2017-12-23T00:10:20.459Z,99.99
2017-12-23T00:11:08.847Z,99.99
2017-12-23T00:12:14.557Z,99.99
2017-12-23T00:13:08.830Z,99.99
2017-12-23T00:14:14.545Z,99.99
2017-12-23T00:15:08.849Z,99.99
2017-12-23T00:16:09.968Z,99.99
2017-12-23T00:17:08.833Z,99.99
2017-12-23T00:18:13.525Z,99.99
2017-12-23T00:19:08.830Z,99.99
2017-12-23T00:20:29.844Z,99.99
2017-12-23T00:21:08.838Z,99.99
2017-12-23T00:22:08.954Z,99.99
2017-12-23T00:23:08.865Z,99.99
2017-12-23T00:24:11.013Z,99.99
2017-12-23T00:25:08.858Z,99.99
2017-12-23T00:26:10.025Z,99.99
2017-12-23T00:27:08.873Z,99.99
2017-12-23T00:28:34.499Z,99.99
2017-12-23T00:29:08.869Z,99.99
2017-12-23T00:30:08.869Z,99.99
2017-12-23T00:31:09.016Z,99.99
2017-12-23T00:32:08.893Z,99.99
2017-12-23T00:33:10.008Z,99.99
2017-12-23T00:34:08.892Z,99.99
2017-12-23T00:35:09.098Z,99.99
2017-12-23T00:36:08.894Z,99.99
2017-12-23T00:37:29.916Z,99.99
2017-12-23T00:38:08.899Z,99.99
2017-12-23T00:39:22.027Z,99.99
2017-12-23T00:40:08.916Z,99.99
2017-12-23T00:41:14.062Z,99.99
2017-12-23T00:42:08.914Z,99.99
2017-12-23T00:43:21.959Z,99.99
2017-12-23T00:44:08.922Z,99.99
2017-12-23T00:45:09.997Z,99.99
2017-12-23T00:46:08.934Z,99.99
2017-12-23T00:47:15.143Z,99.99
2017-12-23T00:48:08.949Z,99.99
2017-12-23T00:49:11.050Z,99.99
2017-12-23T00:50:08.953Z,99.99
2017-12-23T00:51:09.017Z,99.99
2017-12-23T00:52:08.961Z,99.99
2017-12-23T00:53:25.008Z,99.99
2017-12-23T00:54:08.992Z,99.99
2017-12-23T00:55:09.044Z,99.99
2017-12-23T00:56:08.996Z,99.99
2017-12-23T00:57:20.009Z,99.99
2017-12-23T00:58:08.997Z,99.99
2017-12-23T00:59:35.027Z,99.99
2017-12-23T01:00:08.994Z,99.99
2017-12-23T01:01:08.997Z,99.99
2017-12-23T01:02:20.989Z,99.99
2017-12-23T01:03:08.993Z,99.99
2017-12-23T01:04:10.123Z,99.99
2017-12-23T01:05:09.022Z,99.99
2017-12-23T01:06:44.957Z,99.99
2017-12-23T01:07:09.049Z,99.99
2017-12-23T01:47:59.500Z,99.99
2017-12-23T01:48:59.444Z,99.99
2017-12-23T01:50:02.129Z,99.99
2017-12-23T01:50:59.447Z,99.99
2017-12-23T01:51:59.451Z,99.99
2017-12-23T01:53:00.159Z,99.99
2017-12-23T01:53:59.471Z,99.99
2017-12-23T01:54:59.481Z,99.99
2017-12-23T01:55:59.458Z,99.99
2017-12-23T01:56:59.464Z,99.99
2017-12-23T01:57:59.500Z,99.99
2017-12-23T01:58:59.473Z,99.99
2017-12-23T01:59:59.480Z,99.99
2017-12-23T02:00:59.497Z,99.99
2017-12-23T02:01:59.489Z,99.99
2017-12-23T02:02:59.488Z,99.99
2017-12-23T02:03:59.492Z,99.99
2017-12-23T02:04:59.503Z,99.99
2017-12-23T02:05:59.506Z,99.99
2017-12-23T02:06:59.509Z,99.99
2017-12-23T02:07:59.501Z,99.99
2017-12-23T02:08:59.505Z,99.99
2017-12-23T02:09:59.536Z,99.99
2017-12-23T02:10:59.527Z,99.99
2017-12-23T02:11:59.520Z,99.99
2017-12-23T02:12:59.634Z,99.99
2017-12-23T02:13:59.520Z,99.99
2017-12-23T02:15:01.589Z,99.99
2017-12-23T02:15:59.532Z,99.99
2017-12-23T02:17:10.207Z,99.99
2017-12-23T02:17:59.539Z,99.99
2017-12-23T02:18:59.574Z,99.99
2017-12-23T02:19:59.538Z,99.99
2017-12-23T02:21:05.218Z,99.99
2017-12-23T02:21:59.552Z,99.99
2017-12-23T02:23:05.234Z,99.99
2017-12-23T02:23:59.551Z,99.99
2017-12-23T02:25:01.750Z,99.99
2017-12-23T02:25:59.592Z,99.99
2017-12-23T02:26:59.621Z,99.99
2017-12-23T02:27:59.590Z,99.99
2017-12-23T02:28:59.635Z,99.99
2017-12-23T02:29:59.584Z,99.99
2017-12-23T02:30:59.649Z,99.99
2017-12-23T02:31:59.596Z,99.99
2017-12-23T02:32:59.664Z,99.99
2017-12-23T02:33:59.619Z,99.99
2017-12-23T02:34:59.678Z,99.99
2017-12-23T02:35:59.644Z,99.99
2017-12-23T02:36:59.689Z,99.99
2017-12-23T02:37:59.612Z,99.99
2017-12-23T02:38:59.711Z,99.99
2017-12-23T02:39:59.623Z,99.99
2017-12-23T02:41:00.741Z,99.99
2017-12-23T02:41:59.625Z,99.99
2017-12-23T02:42:59.739Z,99.99
2017-12-23T02:43:59.625Z,99.99
2017-12-23T02:44:59.742Z,99.99
2017-12-23T02:45:59.621Z,99.99
2017-12-23T02:47:00.685Z,99.99
2017-12-23T02:47:59.641Z,99.99
2017-12-23T02:48:59.793Z,99.99
2017-12-23T02:49:59.658Z,99.99
2017-12-23T02:50:59.688Z,99.99
2017-12-23T02:51:59.661Z,99.99
2017-12-23T02:52:59.698Z,99.99
2017-12-23T02:53:59.662Z,99.99
2017-12-23T02:54:59.711Z,99.99
2017-12-23T02:55:59.675Z,99.99
2017-12-23T02:57:00.747Z,99.99
2017-12-23T02:57:59.664Z,99.99
2017-12-23T02:58:59.740Z,99.99
2017-12-23T02:59:59.676Z,99.99
2017-12-23T03:00:59.747Z,99.99
2017-12-23T03:01:59.691Z,99.99
2017-12-23T03:02:59.778Z,99.99
2017-12-23T03:03:59.689Z,99.99
2017-12-23T03:04:59.819Z,99.99
2017-12-23T03:05:59.701Z,99.99
2017-12-23T03:06:59.806Z,99.99
2017-12-23T03:07:59.710Z,99.99
2017-12-23T03:08:59.921Z,99.99
2017-12-23T03:09:59.720Z,99.99
2017-12-23T03:10:59.854Z,99.99
2017-12-23T03:11:59.705Z,99.99
2017-12-23T03:13:00.856Z,99.99
2017-12-23T03:13:59.723Z,99.99
2017-12-23T03:14:59.856Z,99.99
2017-12-23T03:15:59.725Z,99.99
2017-12-23T03:17:00.786Z,99.99
2017-12-23T03:17:59.736Z,99.99
2017-12-23T03:18:59.893Z,99.99
2017-12-23T03:19:59.744Z,99.99
2017-12-23T03:20:59.891Z,99.99
2017-12-23T03:21:59.746Z,99.99
2017-12-23T03:22:59.805Z,99.99
2017-12-23T03:23:59.753Z,99.99
2017-12-23T03:24:59.815Z,99.99
2017-12-23T03:25:59.782Z,99.99
2017-12-23T03:26:59.832Z,99.99
2017-12-23T03:27:59.758Z,99.99
2017-12-23T03:28:59.849Z,99.99
2017-12-23T03:29:59.773Z,99.99
2017-12-23T03:30:59.874Z,99.99
2017-12-23T03:31:59.783Z,99.99
2017-12-23T03:32:59.863Z,99.99
2017-12-23T03:33:59.779Z,99.99
2017-12-23T03:34:59.893Z,99.99
2017-12-23T03:35:59.847Z,99.99
2017-12-23T03:36:59.902Z,99.99
2017-12-23T03:37:59.798Z,99.99
2017-12-23T03:39:00.934Z,99.99
2017-12-23T03:39:59.803Z,99.99
2017-12-23T03:40:59.922Z,99.99
2017-12-23T03:41:59.846Z,99.99
2017-12-23T03:42:59.935Z,99.99
2017-12-23T03:43:59.820Z,99.99
2017-12-23T03:44:59.949Z,99.99
2017-12-23T03:45:59.825Z,99.99
2017-12-23T03:46:59.961Z,99.99
2017-12-23T03:47:59.824Z,99.99
2017-12-23T03:48:59.970Z,99.99
2017-12-23T03:49:59.868Z,99.99
2017-12-23T03:51:00.016Z,99.99
2017-12-23T03:51:59.846Z,99.99
2017-12-23T03:53:00.001Z,99.99
2017-12-23T03:54:00.664Z,99.99
2017-12-23T03:54:59.906Z,99.99
2017-12-23T03:55:59.850Z,99.99
2017-12-23T03:56:59.923Z,99.99
2017-12-23T03:57:59.872Z,99.99
2017-12-23T03:59:01.983Z,99.99
2017-12-23T03:59:59.864Z,99.99
2017-12-23T04:00:59.951Z,99.99
2017-12-23T04:01:59.911Z,99.99
2017-12-23T04:02:59.961Z,99.99
2017-12-23T04:03:59.912Z,99.99
2017-12-23T04:04:59.971Z,99.99
2017-12-23T04:05:59.893Z,99.99
2017-12-23T04:06:59.989Z,99.99
2017-12-23T04:07:59.892Z,99.99
2017-12-23T04:09:00.003Z,99.99
2017-12-23T04:09:59.890Z,99.99
2017-12-23T04:11:00.059Z,99.99
2017-12-23T04:11:59.895Z,99.99
2017-12-23T04:13:01.046Z,99.99
2017-12-23T04:13:59.911Z,99.99
2017-12-23T04:15:00.039Z,99.99
2017-12-23T04:15:59.911Z,99.99
2017-12-23T04:17:00.049Z,99.99
2017-12-23T04:17:59.913Z,99.99
2017-12-23T04:19:00.065Z,99.99
2017-12-23T04:19:59.918Z,99.99
2017-12-23T04:21:00.071Z,99.99
2017-12-23T04:21:59.925Z,99.99
2017-12-23T04:23:00.099Z,99.99
2017-12-23T04:23:59.931Z,99.99
2017-12-23T04:25:00.011Z,99.99
2017-12-23T04:25:59.944Z,99.99
2017-12-23T04:27:00.023Z,99.99
2017-12-23T04:27:59.985Z,99.99
2017-12-23T04:29:00.033Z,99.99
2017-12-23T04:29:59.946Z,99.99
2017-12-23T04:31:00.037Z,99.99
2017-12-23T04:31:59.952Z,99.99
2017-12-23T04:33:00.063Z,99.99
2017-12-23T04:33:59.967Z,99.99
2017-12-23T04:35:00.072Z,99.99
2017-12-23T04:35:59.963Z,99.99
2017-12-23T04:37:02.132Z,99.99
2017-12-23T04:37:59.977Z,99.99
2017-12-23T04:39:00.105Z,99.99
2017-12-23T04:39:59.975Z,99.99
2017-12-23T04:41:01.130Z,99.99
2017-12-23T04:41:59.990Z,99.99
2017-12-23T04:43:00.120Z,99.99
2017-12-23T04:43:59.990Z,99.99
2017-12-23T04:45:00.050Z,99.99
2017-12-23T04:46:00.001Z,99.99
2017-12-23T04:47:00.163Z,99.99
2017-12-23T04:48:00.010Z,99.99
2017-12-23T04:49:01.184Z,99.99
2017-12-23T04:50:00.010Z,99.99
2017-12-23T04:51:00.172Z,99.99
2017-12-23T04:52:00.012Z,99.99
2017-12-23T04:53:00.181Z,99.99
2017-12-23T04:54:00.021Z,99.99
2017-12-23T04:55:00.193Z,99.99
2017-12-23T04:56:00.028Z,99.99
2017-12-23T04:57:00.105Z,99.99
2017-12-23T04:58:00.027Z,99.99
2017-12-23T04:59:00.118Z,99.99
2017-12-23T05:00:00.044Z,99.99
2017-12-23T05:01:00.145Z,99.99
2017-12-23T05:02:00.043Z,99.99
2017-12-23T05:03:00.156Z,99.99
2017-12-23T05:04:00.052Z,99.99
2017-12-23T05:05:00.175Z,99.99
2017-12-23T05:06:00.058Z,99.99
2017-12-23T05:07:00.173Z,99.99
2017-12-23T05:08:00.071Z,99.99
2017-12-23T05:09:01.323Z,99.99
2017-12-23T05:10:00.067Z,99.99
2017-12-23T05:11:00.203Z,99.99
2017-12-23T05:12:00.070Z,99.99
2017-12-23T05:13:00.210Z,99.99
2017-12-23T05:14:00.115Z,99.99
2017-12-23T05:15:00.274Z,99.99
2017-12-23T05:16:00.161Z,99.99
2017-12-23T05:17:00.254Z,99.99
2017-12-23T05:18:00.105Z,99.99
2017-12-23T05:19:00.270Z,99.99
2017-12-23T05:20:00.106Z,99.99
2017-12-23T05:21:00.269Z,99.99
2017-12-23T05:22:00.108Z,99.99
2017-12-23T05:23:00.280Z,99.99
2017-12-23T05:24:00.108Z,99.99
2017-12-23T05:25:00.294Z,99.99
2017-12-23T05:26:00.167Z,99.99
2017-12-23T05:27:00.306Z,99.99
2017-12-23T05:28:00.129Z,99.99
2017-12-23T05:29:01.248Z,99.99
2017-12-23T05:30:00.124Z,99.99
2017-12-23T05:31:00.234Z,99.99
2017-12-23T05:32:00.650Z,99.99
2017-12-23T05:33:00.247Z,99.99
2017-12-23T05:34:00.152Z,99.99
2017-12-23T05:35:01.290Z,99.99
2017-12-23T05:36:00.145Z,99.99
2017-12-23T05:37:00.327Z,99.99
2017-12-23T05:38:00.159Z,99.99
2017-12-23T05:39:00.291Z,99.99
2017-12-23T05:40:00.162Z,99.99
2017-12-23T05:41:00.295Z,99.99
2017-12-23T05:42:00.168Z,99.99
2017-12-23T05:43:00.320Z,99.99
2017-12-23T05:44:00.197Z,99.99
2017-12-23T05:45:00.321Z,99.99
2017-12-23T05:46:00.188Z,99.99
2017-12-23T05:47:00.344Z,99.99
2017-12-23T05:48:00.181Z,99.99
2017-12-23T05:49:00.357Z,99.99
2017-12-23T05:50:00.184Z,99.99
2017-12-23T05:51:00.372Z,99.99
2017-12-23T05:52:00.252Z,99.99
2017-12-23T05:53:00.378Z,99.99
2017-12-23T05:54:00.200Z,99.99
2017-12-23T05:55:00.388Z,99.99
2017-12-23T05:56:00.206Z,99.99
2017-12-23T05:57:00.412Z,99.99
2017-12-23T05:58:00.226Z,99.99
2017-12-23T05:59:00.416Z,99.99
2017-12-23T06:00:00.225Z,99.99
2017-12-23T06:01:00.334Z,99.99
2017-12-23T06:02:00.225Z,99.99
2017-12-23T06:03:00.377Z,99.99
2017-12-23T06:04:00.252Z,99.99
2017-12-23T06:05:00.359Z,99.99
2017-12-23T06:06:00.271Z,99.99
2017-12-23T06:07:00.389Z,99.99
2017-12-23T06:08:00.255Z,99.99
2017-12-23T06:09:00.456Z,99.99
2017-12-23T06:10:00.442Z,99.99
2017-12-23T06:11:00.395Z,99.99
2017-12-23T06:12:00.273Z,99.99
2017-12-23T06:13:00.411Z,99.99
2017-12-23T06:14:00.288Z,99.99
2017-12-23T06:15:00.426Z,99.99
2017-12-23T06:16:00.266Z,99.99
2017-12-23T06:17:00.440Z,99.99
2017-12-23T06:18:00.286Z,99.99
2017-12-23T06:19:00.452Z,99.99
2017-12-23T06:20:00.283Z,99.99
2017-12-23T06:21:00.479Z,99.99
2017-12-23T06:22:00.297Z,99.99
2017-12-23T06:23:00.478Z,99.99
2017-12-23T06:24:00.293Z,99.99
2017-12-23T06:25:00.507Z,99.99
2017-12-23T06:26:00.306Z,99.99
2017-12-23T06:27:00.540Z,99.99
2017-12-23T06:28:00.309Z,99.99
2017-12-23T06:29:01.446Z,99.99
2017-12-23T06:30:00.332Z,99.99
2017-12-23T06:31:01.477Z,99.99
2017-12-23T06:32:00.330Z,99.99
2017-12-23T06:33:00.457Z,99.99
2017-12-23T06:34:00.338Z,99.99
2017-12-23T06:35:00.470Z,99.99
2017-12-23T06:36:00.337Z,99.99
2017-12-23T06:37:00.350Z,99.99
2017-12-23T06:38:00.354Z,99.99
2017-12-23T06:39:00.355Z,99.99
2017-12-23T06:40:00.524Z,99.99
2017-12-23T06:41:00.358Z,99.99
2017-12-23T06:42:00.371Z,99.99
2017-12-23T06:43:00.373Z,99.99
2017-12-23T06:44:00.380Z,99.99
2017-12-23T06:45:00.372Z,99.99
2017-12-23T06:46:02.597Z,99.99
2017-12-23T06:47:00.370Z,99.99
2017-12-23T06:48:01.177Z,99.99
2017-12-23T06:49:00.374Z,99.99
2017-12-23T06:50:00.381Z,99.99
2017-12-23T06:51:00.393Z,99.99
2017-12-23T06:52:00.389Z,99.99
2017-12-23T06:53:00.394Z,99.99
2017-12-23T06:54:00.392Z,99.99
2017-12-23T06:55:00.399Z,99.99
2017-12-23T06:56:01.535Z,99.99
2017-12-23T06:57:00.404Z,99.99
2017-12-23T06:58:00.623Z,99.99
2017-12-23T06:59:00.411Z,99.99
2017-12-23T07:00:00.422Z,99.99
2017-12-23T07:01:00.419Z,99.99
2017-12-23T07:02:00.422Z,99.99
2017-12-23T07:03:00.421Z,99.99
2017-12-23T07:04:00.438Z,99.99
2017-12-23T07:05:00.432Z,99.99
2017-12-23T07:06:01.173Z,99.99
2017-12-23T07:07:00.438Z,99.99
2017-12-23T07:08:00.484Z,99.99
2017-12-23T07:09:00.455Z,99.99
2017-12-23T07:10:00.472Z,99.99
2017-12-23T07:11:00.452Z,99.99
2017-12-23T07:12:00.468Z,99.99
2017-12-23T07:13:00.451Z,99.99
2017-12-23T07:14:00.525Z,99.99
2017-12-23T07:15:00.475Z,99.99
2017-12-23T07:16:02.588Z,99.99
2017-12-23T07:17:00.471Z,99.99
2017-12-23T07:18:01.576Z,99.99
2017-12-23T07:19:00.472Z,99.99
2017-12-23T07:20:00.570Z,99.99
2017-12-23T07:21:00.502Z,99.99
2017-12-23T07:22:00.580Z,99.99
2017-12-23T07:23:00.486Z,99.99
2017-12-23T07:24:00.493Z,99.99
2017-12-23T07:25:00.497Z,99.99
2017-12-23T07:26:00.500Z,99.99
2017-12-23T07:27:00.513Z,99.99
2017-12-23T07:28:00.512Z,99.99
2017-12-23T07:29:00.633Z,99.99
2017-12-23T07:30:00.515Z,99.99
2017-12-23T07:31:00.518Z,99.99
2017-12-23T07:32:00.535Z,99.99
2017-12-23T07:33:00.520Z,99.99
2017-12-23T07:34:00.523Z,99.99
2017-12-23T07:35:00.561Z,99.99
2017-12-23T07:36:00.532Z,99.99
2017-12-23T07:37:00.535Z,99.99
2017-12-23T07:38:00.542Z,99.99
2017-12-23T07:39:00.549Z,99.99
2017-12-23T07:40:00.572Z,99.99
2017-12-23T07:41:00.603Z,99.99
2017-12-23T07:42:00.613Z,99.99
2017-12-23T07:43:00.637Z,99.99
2017-12-23T07:44:00.563Z,99.99
2017-12-23T07:45:00.636Z,99.99
2017-12-23T07:46:00.570Z,99.99
2017-12-23T07:47:00.644Z,99.99
2017-12-23T07:48:00.588Z,99.99
2017-12-23T07:49:01.702Z,99.99
2017-12-23T07:50:00.590Z,99.99
2017-12-23T07:51:03.426Z,99.99
2017-12-23T07:52:01.237Z,99.99
2017-12-23T07:53:00.687Z,99.99
2017-12-23T07:54:00.598Z,99.99
2017-12-23T07:55:01.708Z,99.99
2017-12-23T07:56:00.597Z,99.99
2017-12-23T07:57:00.716Z,99.99
2017-12-23T07:58:00.601Z,99.99
2017-12-23T07:59:00.739Z,99.99
2017-12-23T08:00:00.618Z,99.99
2017-12-23T08:01:00.737Z,99.99
2017-12-23T08:02:00.615Z,99.99
2017-12-23T08:03:00.763Z,99.99
2017-12-23T08:04:00.627Z,99.99
2017-12-23T08:05:00.779Z,99.99
2017-12-23T08:06:00.625Z,99.99
2017-12-23T08:07:01.712Z,99.99
2017-12-23T08:08:00.643Z,99.99
2017-12-23T08:09:00.703Z,99.99
2017-12-23T08:10:00.651Z,99.99
2017-12-23T08:11:01.778Z,99.99
2017-12-23T08:12:00.683Z,94.60
2017-12-23T08:13:07.312Z,90.50
2017-12-23T08:14:00.688Z,88.07
2017-12-23T08:15:02.790Z,86.63
2017-12-23T08:16:00.732Z,85.64
2017-12-23T08:17:25.334Z,84.97
2017-12-23T08:18:00.713Z,84.55
2017-12-23T08:19:15.333Z,84.26
2017-12-23T08:20:00.681Z,84.12
2017-12-23T08:21:05.314Z,84.03
2017-12-23T08:22:00.691Z,84.03
2017-12-23T08:23:00.808Z,84.03
2017-12-23T08:24:00.707Z,84.08
2017-12-23T08:25:05.828Z,84.17
2017-12-23T08:26:00.743Z,84.27
2017-12-23T08:27:00.821Z,84.46
2017-12-23T08:28:00.710Z,84.56
2017-12-23T08:29:13.866Z,84.75
2017-12-23T08:30:00.745Z,84.84
2017-12-23T08:31:01.881Z,85.08
2017-12-23T08:32:00.744Z,85.28
2017-12-23T08:33:17.796Z,85.37
2017-12-23T08:34:00.760Z,85.56
2017-12-23T08:35:05.822Z,85.75
2017-12-23T08:36:00.774Z,85.94
2017-12-23T08:37:11.915Z,86.13
2017-12-23T08:38:00.773Z,86.42
2017-12-23T08:39:06.881Z,86.61
2017-12-23T08:40:00.787Z,86.80
2017-12-23T08:41:15.791Z,86.99
2017-12-23T08:42:00.800Z,87.08
2017-12-23T09:24:03.667Z,92.99
2017-12-23T09:25:03.555Z,93.18
2017-12-23T09:26:04.620Z,93.18
2017-12-23T09:27:03.528Z,93.37
2017-12-23T09:28:03.615Z,93.46
2017-12-23T09:29:03.543Z,93.55
2017-12-23T09:30:09.275Z,93.55
2017-12-23T09:31:03.601Z,93.65
2017-12-23T10:39:52.233Z,97.79
2017-12-23T10:48:57.484Z,98.17
2017-12-23T10:49:44.738Z,98.27
2017-12-23T10:50:47.023Z,98.27
2017-12-23T10:51:44.798Z,98.27
2017-12-23T10:52:44.893Z,98.36
2017-12-23T10:53:44.746Z,98.36
2017-12-23T10:54:49.583Z,98.36
2017-12-23T10:55:44.770Z,98.46
2017-12-23T10:56:44.807Z,98.46
2017-12-23T10:57:44.787Z,98.55
2017-12-23T10:58:44.756Z,98.55
2017-12-23T10:59:44.794Z,98.55
2017-12-23T11:00:44.761Z,98.65
2017-12-23T11:01:45.860Z,98.65
2017-12-23T11:02:44.784Z,98.74
2017-12-23T11:03:44.929Z,98.74
2017-12-23T11:04:44.775Z,98.83
2017-12-23T11:05:44.831Z,98.83
2017-12-23T11:06:44.796Z,98.83
2017-12-23T11:07:45.873Z,98.93
2017-12-23T11:08:44.809Z,98.93
2017-12-23T11:09:44.834Z,99.02
2017-12-23T11:10:44.812Z,99.02
2017-12-23T11:11:44.908Z,99.02
2017-12-23T11:12:44.802Z,99.12
2017-12-23T11:13:46.937Z,99.12
2017-12-23T11:14:44.820Z,99.12
2017-12-23T11:15:46.929Z,99.22
2017-12-23T11:16:44.814Z,99.22
2017-12-23T11:17:44.914Z,99.31
2017-12-23T11:18:44.823Z,99.31
2017-12-23T11:19:44.914Z,99.31
2017-12-23T11:20:44.828Z,99.41
2017-12-23T11:21:44.973Z,99.41
2017-12-23T11:22:44.873Z,99.41
2017-12-23T11:23:44.930Z,99.41
2017-12-23T11:24:44.872Z,99.50
2017-12-23T11:25:44.919Z,99.50
2017-12-23T11:26:46.050Z,99.60
2017-12-23T11:27:44.866Z,99.60
2017-12-23T11:28:45.062Z,99.60
2017-12-23T11:29:44.888Z,99.60
2017-12-23T11:30:49.594Z,99.69
2017-12-23T11:31:44.947Z,99.69
2017-12-23T11:32:46.020Z,99.69
2017-12-23T11:33:44.879Z,99.79
2017-12-23T11:34:47.018Z,99.79
2017-12-23T11:35:44.901Z,99.79
2017-12-23T11:36:44.981Z,99.88
2017-12-23T11:37:44.904Z,99.88
2017-12-23T11:38:46.065Z,99.88
2017-12-23T11:39:45.029Z,99.98
2017-12-23T11:40:45.026Z,99.98
2017-12-23T11:41:44.923Z,99.98
2017-12-23T11:42:46.064Z,99.99
2017-12-23T11:43:44.923Z,99.99
2017-12-23T11:44:51.677Z,99.99
2017-12-23T11:45:44.942Z,99.99
2017-12-23T11:46:49.565Z,99.99
2017-12-23T11:47:44.956Z,99.99
2017-12-23T11:48:47.123Z,99.99
2017-12-23T11:49:44.973Z,99.99
2017-12-23T11:50:45.004Z,99.99
2017-12-23T11:51:44.979Z,99.99
2017-12-23T11:52:45.037Z,99.99
2017-12-23T11:53:44.971Z,99.99
2017-12-23T11:54:50.035Z,99.99
2017-12-23T11:55:44.996Z,99.99
2017-12-23T11:56:56.994Z,99.99
2017-12-23T11:57:44.977Z,99.99
2017-12-23T11:58:45.029Z,99.99
2017-12-23T11:59:45.002Z,99.99
2017-12-23T12:00:45.057Z,99.99
2017-12-23T12:01:45.042Z,99.99
2017-12-23T12:02:45.053Z,99.99
2017-12-23T12:03:45.004Z,99.99
2017-12-23T12:04:45.063Z,99.99
2017-12-23T12:05:45.008Z,99.99
2017-12-23T12:06:47.037Z,99.99
2017-12-23T12:07:45.049Z,99.99
2017-12-23T12:08:46.016Z,99.99
2017-12-23T12:09:44.999Z,99.99
2017-12-23T12:10:46.074Z,99.99
2017-12-23T12:11:45.032Z,99.99
2017-12-23T12:12:51.021Z,99.99
2017-12-23T12:13:45.027Z,99.99
2017-12-23T12:14:45.091Z,99.99
2017-12-23T12:15:45.037Z,99.99
2017-12-23T12:16:45.099Z,99.99
2017-12-23T12:17:45.057Z,99.99
2017-12-23T12:18:45.103Z,99.99
2017-12-23T12:19:45.065Z,99.99
2017-12-23T12:20:45.169Z,99.99
2017-12-23T12:21:45.067Z,99.99
2017-12-23T12:22:45.064Z,99.99
2017-12-23T12:23:45.098Z,99.99
2017-12-23T12:24:45.055Z,99.99
2017-12-23T12:25:45.067Z,99.99
2017-12-23T12:26:45.195Z,99.99
2017-12-23T12:27:45.085Z,99.99
2017-12-23T12:28:45.151Z,99.99
2017-12-23T12:29:45.099Z,99.99
2017-12-23T12:30:45.182Z,99.99
2017-12-23T12:31:45.093Z,99.99
2017-12-23T12:32:45.098Z,99.99
2017-12-23T12:33:45.114Z,99.99
2017-12-23T12:34:45.139Z,99.99
2017-12-23T12:35:45.125Z,99.99
2017-12-23T12:36:45.209Z,99.99
2017-12-23T12:37:45.112Z,99.99
2017-12-23T12:38:45.127Z,99.99
2017-12-23T12:39:45.250Z,99.99
2017-12-23T12:40:45.133Z,99.99
2017-12-23T12:41:45.245Z,99.99
2017-12-23T12:42:46.351Z,99.99
2017-12-23T12:43:45.283Z,99.99
2017-12-23T12:44:45.132Z,99.99
2017-12-23T12:45:45.224Z,99.99
2017-12-23T12:46:45.152Z,99.99
2017-12-23T12:47:45.240Z,99.99
2017-12-23T12:48:45.143Z,99.99
2017-12-23T12:49:45.245Z,99.99
2017-12-23T12:50:45.168Z,99.99
2017-12-23T12:51:45.273Z,99.99
2017-12-23T12:52:45.158Z,99.99
2017-12-23T12:53:45.170Z,99.99
2017-12-23T12:54:45.185Z,99.99
2017-12-23T12:55:45.294Z,99.99
2017-12-23T12:56:45.190Z,99.99
2017-12-23T12:57:45.198Z,99.99
2017-12-23T12:58:45.231Z,99.99
2017-12-23T12:59:45.216Z,99.99
2017-12-23T13:00:45.197Z,99.99
2017-12-23T13:01:45.206Z,99.99
2017-12-23T13:02:45.220Z,99.99
2017-12-23T13:03:45.227Z,99.99
2017-12-23T13:04:45.221Z,99.99
2017-12-23T13:05:45.216Z,99.99
2017-12-23T13:06:45.218Z,99.99
2017-12-23T13:07:45.219Z,99.99
2017-12-23T13:08:45.218Z,99.99
2017-12-23T13:09:45.272Z,99.99
2017-12-23T13:10:45.231Z,99.99
2017-12-23T13:11:45.253Z,99.99
2017-12-23T13:12:45.236Z,99.99
2017-12-23T13:13:45.240Z,99.99
2017-12-23T13:14:45.251Z,99.99
2017-12-23T13:15:45.247Z,99.99
2017-12-23T13:16:47.776Z,99.99
2017-12-23T13:17:45.327Z,99.99
2017-12-23T13:18:45.245Z,99.99
2017-12-23T13:19:45.254Z,99.99
2017-12-23T13:21:13.030Z,99.99
2017-12-23T13:21:45.259Z,99.99
2017-12-23T13:22:45.299Z,99.99
2017-12-23T13:23:45.271Z,99.99
2017-12-23T13:24:45.312Z,99.99
2017-12-23T13:25:45.335Z,99.99
2017-12-23T13:26:45.297Z,99.99
2017-12-23T13:27:45.290Z,99.99
2017-12-23T13:28:45.294Z,99.99
2017-12-23T13:29:51.202Z,99.99
2017-12-23T13:30:45.318Z,99.99
2017-12-23T13:31:45.346Z,99.99
2017-12-23T13:32:45.354Z,99.99
2017-12-23T13:33:46.393Z,99.99
2017-12-23T13:34:45.340Z,99.99
2017-12-23T13:35:51.021Z,99.99
2017-12-23T13:36:45.328Z,99.99
2017-12-23T13:37:45.394Z,99.99
2017-12-23T13:38:45.325Z,99.99
2017-12-23T13:39:46.440Z,99.99
2017-12-23T13:40:45.373Z,99.99
2017-12-23T13:41:45.420Z,99.99
2017-12-23T13:42:45.341Z,99.99
2017-12-23T13:43:45.437Z,99.99
2017-12-23T13:44:45.349Z,99.99
2017-12-23T13:45:45.447Z,99.99
2017-12-23T13:46:45.430Z,99.99
2017-12-23T13:47:47.407Z,99.99
2017-12-23T13:48:45.363Z,99.99
2017-12-23T13:49:46.609Z,99.99
2017-12-23T13:50:45.370Z,99.99
2017-12-23T13:51:56.034Z,99.99
2017-12-23T13:52:45.397Z,99.99
2017-12-23T13:53:46.401Z,99.99
2017-12-23T13:54:45.411Z,99.99
2017-12-23T13:55:45.509Z,99.99
2017-12-23T13:56:45.387Z,99.99
2017-12-23T13:57:46.464Z,99.99
2017-12-23T13:58:45.407Z,99.99
2017-12-23T13:59:45.451Z,99.99
2017-12-23T14:00:45.399Z,99.99
2017-12-23T14:01:45.446Z,99.99
2017-12-23T14:02:45.422Z,99.99
2017-12-23T14:03:45.481Z,99.99
2017-12-23T14:04:45.426Z,99.99
2017-12-23T14:05:46.489Z,99.99
2017-12-23T14:06:45.426Z,99.99
2017-12-23T14:07:45.468Z,99.99
2017-12-23T14:08:45.450Z,99.99
2017-12-23T14:09:45.459Z,99.99
2017-12-23T14:10:45.436Z,99.99
2017-12-23T14:11:45.440Z,99.99
2017-12-23T14:12:45.457Z,99.99
2017-12-23T14:13:47.961Z,99.99
2017-12-23T14:14:58.018Z,99.99
2017-12-23T14:15:45.462Z,99.99
2017-12-23T14:16:50.077Z,99.99
2017-12-23T14:17:45.472Z,99.99
2017-12-23T14:18:46.569Z,99.99
2017-12-23T14:19:45.527Z,99.99
2017-12-23T14:20:45.555Z,99.99
2017-12-23T14:21:45.495Z,99.99
2017-12-23T14:22:45.565Z,99.99
2017-12-23T14:23:45.501Z,99.99
2017-12-23T14:24:56.544Z,99.99
2017-12-23T14:25:45.504Z,99.99
2017-12-23T14:26:51.534Z,99.99
2017-12-23T14:27:45.504Z,99.99
2017-12-23T14:28:50.527Z,99.99
2017-12-23T14:29:45.512Z,99.99
2017-12-23T14:30:50.524Z,99.99
2017-12-23T14:31:45.528Z,99.99
2017-12-23T14:32:47.591Z,99.99
2017-12-23T14:33:45.547Z,99.99
2017-12-23T14:34:45.544Z,99.99
2017-12-23T14:35:45.527Z,99.99
2017-12-23T14:36:45.551Z,99.99
2017-12-23T14:37:45.626Z,99.99
2017-12-23T14:38:45.573Z,99.99
2017-12-23T14:39:45.569Z,99.99
2017-12-23T14:40:46.606Z,99.99
2017-12-23T14:41:45.595Z,99.99
2017-12-23T14:42:45.593Z,99.99
2017-12-23T14:43:45.648Z,99.99
2017-12-23T14:44:45.606Z,99.99
2017-12-23T14:45:45.584Z,99.99
2017-12-23T14:46:45.610Z,99.99
2017-12-23T14:47:46.669Z,99.99
2017-12-23T14:48:45.578Z,99.99
2017-12-23T14:49:45.604Z,99.99
2017-12-23T14:50:45.641Z,99.99
2017-12-23T14:51:45.662Z,99.99
2017-12-23T14:52:45.597Z,99.99
2017-12-23T14:53:46.692Z,99.99
2017-12-23T14:54:45.623Z,99.99
2017-12-23T14:55:45.683Z,99.99
2017-12-23T14:56:45.779Z,99.99
2017-12-23T14:57:45.722Z,99.99
2017-12-23T14:58:45.627Z,99.99
2017-12-23T14:59:46.728Z,99.99
2017-12-23T15:00:45.648Z,99.99
2017-12-23T15:01:45.731Z,99.99
2017-12-23T15:02:45.644Z,99.99
2017-12-23T15:03:45.745Z,99.99
2017-12-23T15:04:45.638Z,99.99
2017-12-23T15:05:46.675Z,99.99
2017-12-23T15:06:45.646Z,99.99
2017-12-23T15:07:45.655Z,99.99
2017-12-23T15:08:45.791Z,99.99
2017-12-23T15:09:45.672Z,99.99
2017-12-23T15:10:45.673Z,99.99
2017-12-23T15:11:45.690Z,99.99
2017-12-23T15:12:45.680Z,99.99
2017-12-23T15:13:45.731Z,99.99
2017-12-23T15:14:45.705Z,99.99
2017-12-23T15:15:45.747Z,99.99
2017-12-23T15:16:45.692Z,99.99
2017-12-23T15:17:50.532Z,99.99
2017-12-23T15:18:45.743Z,99.99
2017-12-23T15:19:45.734Z,99.99
2017-12-23T15:20:45.699Z,99.99
2017-12-23T15:21:45.702Z,99.99
2017-12-23T15:22:45.711Z,99.99
2017-12-23T15:23:45.753Z,99.99
2017-12-23T15:24:45.741Z,99.99
2017-12-23T15:25:45.807Z,99.99
2017-12-23T15:26:45.724Z,99.99
2017-12-23T15:27:45.782Z,99.99
2017-12-23T15:28:45.729Z,99.99